sensor_id;sensor_type;location;lat;lon;timestamp;pressure;altitude;pressure_sealevel;temperature;humidity
53246;BME280;39569;51.090;-1.786;2023-04-07T00:00:56;101310.81;;;13.48;52.00
53246;BME280;39569;51.090;-1.786;2023-04-07T00:03:23;101311.28;;;13.51;51.78
53246;BME280;39569;51.090;-1.786;2023-04-07T00:05:50;101312.06;;;13.37;52.24
53246;BME280;39569;51.090;-1.786;2023-04-07T00:08:17;101312.25;;;13.36;51.57
53246;BME280;39569;51.090;-1.786;2023-04-07T00:10:43;101323.22;;;13.26;52.20
53246;BME280;39569;51.090;-1.786;2023-04-07T00:13:12;101317.72;;;13.42;52.21
53246;BME280;39569;51.090;-1.786;2023-04-07T00:15:39;101321.97;;;13.37;51.87
53246;BME280;39569;51.090;-1.786;2023-04-07T00:18:06;101325.50;;;13.37;51.88
53246;BME280;39569;51.090;-1.786;2023-04-07T00:20:32;101324.06;;;13.27;52.15
53246;BME280;39569;51.090;-1.786;2023-04-07T00:22:59;101332.50;;;13.16;52.59
53246;BME280;39569;51.090;-1.786;2023-04-07T00:25:26;101337.69;;;13.17;52.54
53246;BME280;39569;51.090;-1.786;2023-04-07T00:27:53;101333.25;;;13.32;51.81
53246;BME280;39569;51.090;-1.786;2023-04-07T00:30:21;101334.31;;;13.23;52.24
53246;BME280;39569;51.090;-1.786;2023-04-07T00:32:48;101328.09;;;13.23;52.41
53246;BME280;39569;51.090;-1.786;2023-04-07T00:35:15;101325.72;;;13.28;52.00
53246;BME280;39569;51.090;-1.786;2023-04-07T00:37:42;101326.97;;;13.17;52.16
53246;BME280;39569;51.090;-1.786;2023-04-07T00:40:10;101325.28;;;13.16;52.17
53246;BME280;39569;51.090;-1.786;2023-04-07T00:42:36;101335.00;;;13.17;51.99
53246;BME280;39569;51.090;-1.786;2023-04-07T00:45:04;101327.34;;;13.06;52.05
53246;BME280;39569;51.090;-1.786;2023-04-07T00:47:32;101335.88;;;13.02;51.91
53246;BME280;39569;51.090;-1.786;2023-04-07T00:49:59;101332.44;;;12.85;52.22
53246;BME280;39569;51.090;-1.786;2023-04-07T00:52:26;101333.28;;;12.85;51.94
53246;BME280;39569;51.090;-1.786;2023-04-07T00:54:54;101325.28;;;12.77;52.06
53246;BME280;39569;51.090;-1.786;2023-04-07T00:57:21;101327.34;;;12.67;51.91
53246;BME280;39569;51.090;-1.786;2023-04-07T00:59:48;101322.84;;;12.60;52.05
53246;BME280;39569;51.090;-1.786;2023-04-07T01:02:17;101329.84;;;12.69;52.06
53246;BME280;39569;51.090;-1.786;2023-04-07T01:04:49;101332.53;;;12.69;52.00
53246;BME280;39569;51.090;-1.786;2023-04-07T01:07:20;101332.94;;;12.42;52.05
53246;BME280;39569;51.090;-1.786;2023-04-07T01:09:53;101336.13;;;12.45;52.30
53246;BME280;39569;51.090;-1.786;2023-04-07T01:12:24;101339.41;;;12.55;51.71
53246;BME280;39569;51.090;-1.786;2023-04-07T01:14:58;101336.78;;;12.47;51.86
53246;BME280;39569;51.090;-1.786;2023-04-07T01:17:26;101337.63;;;12.40;51.52
53246;BME280;39569;51.090;-1.786;2023-04-07T01:19:58;101334.78;;;12.41;51.64
53246;BME280;39569;51.090;-1.786;2023-04-07T01:22:32;101334.84;;;12.25;52.11
53246;BME280;39569;51.090;-1.786;2023-04-07T01:25:25;101336.97;;;12.30;52.74
53246;BME280;39569;51.090;-1.786;2023-04-07T01:28:07;101333.94;;;12.49;52.43
53246;BME280;39569;51.090;-1.786;2023-04-07T01:30:39;101335.41;;;12.59;51.65
53246;BME280;39569;51.090;-1.786;2023-04-07T01:33:09;101339.78;;;12.44;52.21
53246;BME280;39569;51.090;-1.786;2023-04-07T01:35:38;101335.47;;;12.35;51.98
53246;BME280;39569;51.090;-1.786;2023-04-07T01:38:05;101330.31;;;12.10;52.36
53246;BME280;39569;51.090;-1.786;2023-04-07T01:40:34;101330.16;;;12.11;52.25
53246;BME280;39569;51.090;-1.786;2023-04-07T01:43:01;101325.16;;;12.16;52.03
53246;BME280;39569;51.090;-1.786;2023-04-07T01:45:28;101323.63;;;12.14;51.88
53246;BME280;39569;51.090;-1.786;2023-04-07T01:47:57;101327.31;;;12.05;52.07
53246;BME280;39569;51.090;-1.786;2023-04-07T01:50:26;101334.03;;;12.09;52.09
53246;BME280;39569;51.090;-1.786;2023-04-07T01:52:54;101330.34;;;11.94;52.03
53246;BME280;39569;51.090;-1.786;2023-04-07T01:55:22;101332.19;;;11.93;51.81
53246;BME280;39569;51.090;-1.786;2023-04-07T01:57:52;101334.50;;;11.96;51.72
53246;BME280;39569;51.090;-1.786;2023-04-07T02:00:19;101331.84;;;11.72;51.97
53246;BME280;39569;51.090;-1.786;2023-04-07T02:02:48;101330.69;;;11.74;52.04
53246;BME280;39569;51.090;-1.786;2023-04-07T02:05:19;101329.03;;;11.73;51.86
53246;BME280;39569;51.090;-1.786;2023-04-07T02:07:51;101331.53;;;11.75;51.81
53246;BME280;39569;51.090;-1.786;2023-04-07T02:10:22;101341.38;;;11.74;51.91
53246;BME280;39569;51.090;-1.786;2023-04-07T02:12:49;101339.50;;;11.51;51.95
53246;BME280;39569;51.090;-1.786;2023-04-07T02:15:18;101337.66;;;11.51;51.88
53246;BME280;39569;51.090;-1.786;2023-04-07T02:17:47;101334.66;;;11.62;52.17
53246;BME280;39569;51.090;-1.786;2023-04-07T02:20:15;101331.97;;;11.54;52.02
53246;BME280;39569;51.090;-1.786;2023-04-07T02:22:45;101346.00;;;11.48;51.94
53246;BME280;39569;51.090;-1.786;2023-04-07T02:25:23;101336.63;;;11.44;51.86
53246;BME280;39569;51.090;-1.786;2023-04-07T02:27:51;101338.28;;;11.37;52.01
53246;BME280;39569;51.090;-1.786;2023-04-07T02:30:18;101340.00;;;11.38;51.92
53246;BME280;39569;51.090;-1.786;2023-04-07T02:32:45;101341.97;;;11.28;52.07
53246;BME280;39569;51.090;-1.786;2023-04-07T02:35:12;101341.44;;;11.25;52.11
53246;BME280;39569;51.090;-1.786;2023-04-07T02:37:39;101344.56;;;11.04;52.38
53246;BME280;39569;51.090;-1.786;2023-04-07T02:40:08;101340.91;;;11.13;52.26
53246;BME280;39569;51.090;-1.786;2023-04-07T02:42:35;101339.56;;;11.09;52.16
53246;BME280;39569;51.090;-1.786;2023-04-07T02:45:02;101336.88;;;11.01;52.14
53246;BME280;39569;51.090;-1.786;2023-04-07T02:47:29;101329.16;;;10.98;52.35
53246;BME280;39569;51.090;-1.786;2023-04-07T02:49:55;101324.66;;;10.99;52.09
53246;BME280;39569;51.090;-1.786;2023-04-07T02:52:22;101330.69;;;11.01;52.03
53246;BME280;39569;51.090;-1.786;2023-04-07T02:54:49;101333.19;;;11.02;52.30
53246;BME280;39569;51.090;-1.786;2023-04-07T02:57:17;101336.38;;;10.98;52.18
53246;BME280;39569;51.090;-1.786;2023-04-07T02:59:44;101335.84;;;10.94;52.05
53246;BME280;39569;51.090;-1.786;2023-04-07T03:02:11;101327.81;;;10.94;52.26
53246;BME280;39569;51.090;-1.786;2023-04-07T03:04:37;101326.78;;;10.79;52.40
53246;BME280;39569;51.090;-1.786;2023-04-07T03:07:04;101323.66;;;10.92;52.30
53246;BME280;39569;51.090;-1.786;2023-04-07T03:09:31;101323.25;;;10.78;52.26
53246;BME280;39569;51.090;-1.786;2023-04-07T03:11:58;101318.09;;;10.77;52.33
53246;BME280;39569;51.090;-1.786;2023-04-07T03:14:26;101325.47;;;10.91;52.14
53246;BME280;39569;51.090;-1.786;2023-04-07T03:16:52;101321.44;;;10.79;52.21
53246;BME280;39569;51.090;-1.786;2023-04-07T03:19:20;101320.09;;;10.83;52.24
53246;BME280;39569;51.090;-1.786;2023-04-07T03:21:47;101320.09;;;10.83;52.26
53246;BME280;39569;51.090;-1.786;2023-04-07T03:24:14;101323.94;;;10.88;52.29
53246;BME280;39569;51.090;-1.786;2023-04-07T03:26:41;101322.75;;;10.83;52.16
53246;BME280;39569;51.090;-1.786;2023-04-07T03:29:07;101330.09;;;10.73;52.22
53246;BME280;39569;51.090;-1.786;2023-04-07T03:31:35;101325.09;;;10.78;51.98
53246;BME280;39569;51.090;-1.786;2023-04-07T03:34:02;101316.00;;;10.63;52.49
53246;BME280;39569;51.090;-1.786;2023-04-07T03:36:29;101328.06;;;10.67;52.83
53246;BME280;39569;51.090;-1.786;2023-04-07T03:38:57;101328.56;;;10.70;52.70
53246;BME280;39569;51.090;-1.786;2023-04-07T03:41:24;101335.38;;;10.65;52.39
53246;BME280;39569;51.090;-1.786;2023-04-07T03:43:51;101339.75;;;10.66;52.61
53246;BME280;39569;51.090;-1.786;2023-04-07T03:46:18;101341.63;;;10.73;52.54
53246;BME280;39569;51.090;-1.786;2023-04-07T03:48:46;101339.75;;;10.66;52.65
53246;BME280;39569;51.090;-1.786;2023-04-07T03:51:13;101341.06;;;10.62;52.69
53246;BME280;39569;51.090;-1.786;2023-04-07T03:53:40;101332.72;;;10.65;52.41
53246;BME280;39569;51.090;-1.786;2023-04-07T03:56:07;101343.28;;;10.74;52.45
53246;BME280;39569;51.090;-1.786;2023-04-07T03:58:34;101340.78;;;10.73;52.74
53246;BME280;39569;51.090;-1.786;2023-04-07T04:01:00;101344.06;;;10.67;52.50
53246;BME280;39569;51.090;-1.786;2023-04-07T04:03:28;101346.78;;;10.75;52.68
53246;BME280;39569;51.090;-1.786;2023-04-07T04:05:56;101344.00;;;10.93;52.25
53246;BME280;39569;51.090;-1.786;2023-04-07T04:08:23;101349.47;;;10.83;52.43
53246;BME280;39569;51.090;-1.786;2023-04-07T04:10:49;101343.88;;;11.02;52.22
53246;BME280;39569;51.090;-1.786;2023-04-07T04:13:16;101341.56;;;10.99;52.31
53246;BME280;39569;51.090;-1.786;2023-04-07T04:15:43;101342.31;;;10.83;52.30
53246;BME280;39569;51.090;-1.786;2023-04-07T04:18:10;101344.31;;;10.81;52.37
53246;BME280;39569;51.090;-1.786;2023-04-07T04:20:37;101345.66;;;10.85;52.20
53246;BME280;39569;51.090;-1.786;2023-04-07T04:23:05;101345.78;;;10.76;52.69
53246;BME280;39569;51.090;-1.786;2023-04-07T04:25:32;101346.47;;;10.78;52.41
53246;BME280;39569;51.090;-1.786;2023-04-07T04:27:59;101349.78;;;10.72;52.43
53246;BME280;39569;51.090;-1.786;2023-04-07T04:30:25;101347.59;;;10.67;52.28
53246;BME280;39569;51.090;-1.786;2023-04-07T04:32:52;101358.22;;;10.51;52.47
53246;BME280;39569;51.090;-1.786;2023-04-07T04:35:20;101356.47;;;10.68;52.21
53246;BME280;39569;51.090;-1.786;2023-04-07T04:37:46;101362.06;;;10.57;52.23
53246;BME280;39569;51.090;-1.786;2023-04-07T04:40:15;101360.44;;;10.64;52.08
53246;BME280;39569;51.090;-1.786;2023-04-07T04:42:42;101348.84;;;10.55;52.38
53246;BME280;39569;51.090;-1.786;2023-04-07T04:45:09;101354.34;;;10.54;52.67
53246;BME280;39569;51.090;-1.786;2023-04-07T04:47:36;101360.03;;;10.51;52.59
53246;BME280;39569;51.090;-1.786;2023-04-07T04:50:03;101362.06;;;10.57;52.74
53246;BME280;39569;51.090;-1.786;2023-04-07T04:52:30;101363.00;;;10.48;53.38
53246;BME280;39569;51.090;-1.786;2023-04-07T04:54:58;101374.16;;;10.69;53.32
53246;BME280;39569;51.090;-1.786;2023-04-07T04:57:26;101369.16;;;10.74;53.65
53246;BME280;39569;51.090;-1.786;2023-04-07T04:59:53;101368.22;;;10.57;53.94
53246;BME280;39569;51.090;-1.786;2023-04-07T05:02:20;101381.38;;;10.76;53.80
53246;BME280;39569;51.090;-1.786;2023-04-07T05:04:46;101368.34;;;10.81;53.87
53246;BME280;39569;51.090;-1.786;2023-04-07T05:07:13;101370.56;;;10.94;53.61
53246;BME280;39569;51.090;-1.786;2023-04-07T05:09:40;101376.47;;;11.06;53.13
53246;BME280;39569;51.090;-1.786;2023-04-07T05:12:06;101380.75;;;11.32;52.31
53246;BME280;39569;51.090;-1.786;2023-04-07T05:14:35;101370.69;;;11.26;52.20
53246;BME280;39569;51.090;-1.786;2023-04-07T05:17:01;101374.69;;;11.22;52.18
53246;BME280;39569;51.090;-1.786;2023-04-07T05:19:28;101377.66;;;11.11;52.08
53246;BME280;39569;51.090;-1.786;2023-04-07T05:21:55;101377.78;;;10.94;52.45
53246;BME280;39569;51.090;-1.786;2023-04-07T05:24:22;101380.91;;;10.89;52.13
53246;BME280;39569;51.090;-1.786;2023-04-07T05:26:50;101388.25;;;10.87;52.29
53246;BME280;39569;51.090;-1.786;2023-04-07T05:29:17;101386.44;;;10.87;52.21
53246;BME280;39569;51.090;-1.786;2023-04-07T05:31:45;101383.59;;;10.89;51.92
53246;BME280;39569;51.090;-1.786;2023-04-07T05:34:11;101398.06;;;10.78;52.27
53246;BME280;39569;51.090;-1.786;2023-04-07T05:36:38;101398.75;;;10.80;52.30
53246;BME280;39569;51.090;-1.786;2023-04-07T05:39:05;101393.41;;;10.80;52.10
53246;BME280;39569;51.090;-1.786;2023-04-07T05:41:32;101397.91;;;10.80;52.08
53246;BME280;39569;51.090;-1.786;2023-04-07T05:43:59;101403.41;;;10.78;51.95
53246;BME280;39569;51.090;-1.786;2023-04-07T05:46:26;101408.28;;;10.83;52.20
53246;BME280;39569;51.090;-1.786;2023-04-07T05:48:54;101408.66;;;10.88;51.98
53246;BME280;39569;51.090;-1.786;2023-04-07T05:51:21;101415.78;;;10.79;52.24
53246;BME280;39569;51.090;-1.786;2023-04-07T05:53:48;101421.91;;;10.72;52.35
53246;BME280;39569;51.090;-1.786;2023-04-07T05:56:15;101420.47;;;10.85;51.98
53246;BME280;39569;51.090;-1.786;2023-04-07T05:58:42;101416.44;;;10.81;52.25
53246;BME280;39569;51.090;-1.786;2023-04-07T06:01:08;101425.50;;;10.88;51.78
53246;BME280;39569;51.090;-1.786;2023-04-07T06:03:35;101435.72;;;10.93;51.73
53246;BME280;39569;51.090;-1.786;2023-04-07T06:06:03;101438.81;;;11.06;51.62
53246;BME280;39569;51.090;-1.786;2023-04-07T06:08:30;101440.97;;;11.03;51.56
53246;BME280;39569;51.090;-1.786;2023-04-07T06:10:57;101434.81;;;11.10;51.81
53246;BME280;39569;51.090;-1.786;2023-04-07T06:13:24;101432.69;;;11.22;51.58
53246;BME280;39569;51.090;-1.786;2023-04-07T06:15:50;101433.06;;;11.35;51.72
53246;BME280;39569;51.090;-1.786;2023-04-07T06:18:17;101442.59;;;11.37;51.83
53246;BME280;39569;51.090;-1.786;2023-04-07T06:20:44;101442.50;;;11.63;51.84
53246;BME280;39569;51.090;-1.786;2023-04-07T06:23:12;101448.75;;;11.79;51.35
53246;BME280;39569;51.090;-1.786;2023-04-07T06:25:39;101447.13;;;11.87;51.73
53246;BME280;39569;51.090;-1.786;2023-04-07T06:28:05;101455.00;;;12.04;51.65
53246;BME280;39569;51.090;-1.786;2023-04-07T06:30:33;101449.81;;;12.27;51.67
53246;BME280;39569;51.090;-1.786;2023-04-07T06:33:00;101463.19;;;12.35;51.48
53246;BME280;39569;51.090;-1.786;2023-04-07T06:35:27;101465.03;;;12.26;51.48
53246;BME280;39569;51.090;-1.786;2023-04-07T06:37:54;101462.19;;;12.28;51.66
53246;BME280;39569;51.090;-1.786;2023-04-07T06:40:22;101460.00;;;12.31;51.63
53246;BME280;39569;51.090;-1.786;2023-04-07T06:42:49;101457.50;;;12.30;51.12
53246;BME280;39569;51.090;-1.786;2023-04-07T06:45:16;101459.53;;;12.36;51.55
53246;BME280;39569;51.090;-1.786;2023-04-07T06:47:43;101467.22;;;12.39;51.36
53246;BME280;39569;51.090;-1.786;2023-04-07T06:50:10;101468.38;;;12.44;51.45
53246;BME280;39569;51.090;-1.786;2023-04-07T06:52:37;101458.84;;;12.50;51.32
53246;BME280;39569;51.090;-1.786;2023-04-07T06:55:04;101467.19;;;12.63;51.55
53246;BME280;39569;51.090;-1.786;2023-04-07T06:57:33;101460.47;;;12.83;51.17
53246;BME280;39569;51.090;-1.786;2023-04-07T07:00:00;101467.03;;;12.72;51.47
53246;BME280;39569;51.090;-1.786;2023-04-07T07:02:26;101471.34;;;12.90;51.32
53246;BME280;39569;51.090;-1.786;2023-04-07T07:04:53;101482.56;;;12.85;51.20
53246;BME280;39569;51.090;-1.786;2023-04-07T07:07:20;101486.78;;;12.88;51.30
53246;BME280;39569;51.090;-1.786;2023-04-07T07:09:47;101486.75;;;12.96;51.10
53246;BME280;39569;51.090;-1.786;2023-04-07T07:12:13;101486.56;;;13.05;50.98
53246;BME280;39569;51.090;-1.786;2023-04-07T07:14:43;101490.59;;;13.17;50.95
53246;BME280;39569;51.090;-1.786;2023-04-07T07:17:10;101497.81;;;13.09;51.00
53246;BME280;39569;51.090;-1.786;2023-04-07T07:19:37;101492.88;;;13.28;51.41
53246;BME280;39569;51.090;-1.786;2023-04-07T07:22:03;101499.88;;;13.45;51.53
53246;BME280;39569;51.090;-1.786;2023-04-07T07:24:30;101497.47;;;13.20;51.61
53246;BME280;39569;51.090;-1.786;2023-04-07T07:26:58;101494.84;;;13.42;52.33
53246;BME280;39569;51.090;-1.786;2023-04-07T07:29:26;101497.56;;;13.34;52.48
53246;BME280;39569;51.090;-1.786;2023-04-07T07:31:54;101495.94;;;13.64;52.02
53246;BME280;39569;51.090;-1.786;2023-04-07T07:34:21;101496.81;;;13.56;52.03
53246;BME280;39569;51.090;-1.786;2023-04-07T07:36:47;101487.16;;;13.39;52.53
53246;BME280;39569;51.090;-1.786;2023-04-07T07:39:14;101491.31;;;13.80;52.77
53246;BME280;39569;51.090;-1.786;2023-04-07T07:41:41;101492.31;;;13.79;52.70
53246;BME280;39569;51.090;-1.786;2023-04-07T07:44:08;101487.31;;;14.22;52.31
53246;BME280;39569;51.090;-1.786;2023-04-07T07:46:34;101489.72;;;14.17;52.68
53246;BME280;39569;51.090;-1.786;2023-04-07T07:49:03;101490.38;;;14.19;52.44
53246;BME280;39569;51.090;-1.786;2023-04-07T07:51:30;101489.66;;;14.25;52.19
53246;BME280;39569;51.090;-1.786;2023-04-07T07:53:57;101476.84;;;14.35;52.54
53246;BME280;39569;51.090;-1.786;2023-04-07T07:56:23;101484.03;;;14.94;51.61
53246;BME280;39569;51.090;-1.786;2023-04-07T07:58:50;101488.88;;;15.13;50.94
53246;BME280;39569;51.090;-1.786;2023-04-07T08:01:17;101494.91;;;15.01;50.86
53246;BME280;39569;51.090;-1.786;2023-04-07T08:03:44;101492.22;;;15.30;50.56
53246;BME280;39569;51.090;-1.786;2023-04-07T08:06:12;101497.13;;;15.55;50.33
53246;BME280;39569;51.090;-1.786;2023-04-07T08:08:39;101497.78;;;15.14;50.92
53246;BME280;39569;51.090;-1.786;2023-04-07T08:11:05;101494.50;;;15.77;49.58
53246;BME280;39569;51.090;-1.786;2023-04-07T08:13:32;101486.38;;;15.91;48.74
53246;BME280;39569;51.090;-1.786;2023-04-07T08:15:59;101485.63;;;16.18;48.47
53246;BME280;39569;51.090;-1.786;2023-04-07T08:18:26;101487.13;;;16.42;48.81
53246;BME280;39569;51.090;-1.786;2023-04-07T08:20:53;101497.22;;;16.82;47.68
53246;BME280;39569;51.090;-1.786;2023-04-07T08:23:21;101488.38;;;18.30;45.26
53246;BME280;39569;51.090;-1.786;2023-04-07T08:25:48;101490.88;;;19.80;42.35
53246;BME280;39569;51.090;-1.786;2023-04-07T08:28:14;101493.28;;;21.13;40.49
53246;BME280;39569;51.090;-1.786;2023-04-07T08:30:41;101496.22;;;21.29;39.83
53246;BME280;39569;51.090;-1.786;2023-04-07T08:33:08;101496.25;;;21.84;38.85
53246;BME280;39569;51.090;-1.786;2023-04-07T08:35:35;101486.22;;;22.78;39.35
53246;BME280;39569;51.090;-1.786;2023-04-07T08:38:01;101495.38;;;23.42;36.71
53246;BME280;39569;51.090;-1.786;2023-04-07T08:40:31;101489.00;;;23.64;37.85
53246;BME280;39569;51.090;-1.786;2023-04-07T08:42:59;101485.78;;;24.52;33.70
53246;BME280;39569;51.090;-1.786;2023-04-07T08:45:26;101485.94;;;25.50;33.98
53246;BME280;39569;51.090;-1.786;2023-04-07T08:47:54;101486.41;;;26.06;33.14
53246;BME280;39569;51.090;-1.786;2023-04-07T08:50:25;101482.06;;;26.42;31.42
53246;BME280;39569;51.090;-1.786;2023-04-07T08:52:54;101475.22;;;27.60;30.77
53246;BME280;39569;51.090;-1.786;2023-04-07T08:55:21;101488.03;;;27.39;32.50
53246;BME280;39569;51.090;-1.786;2023-04-07T08:57:50;101484.22;;;27.45;30.28
53246;BME280;39569;51.090;-1.786;2023-04-07T09:00:18;101480.00;;;27.89;28.15
53246;BME280;39569;51.090;-1.786;2023-04-07T09:02:46;101476.56;;;28.79;28.42
53246;BME280;39569;51.090;-1.786;2023-04-07T09:05:13;101475.13;;;29.22;26.74
53246;BME280;39569;51.090;-1.786;2023-04-07T09:07:40;101478.94;;;29.41;26.11
53246;BME280;39569;51.090;-1.786;2023-04-07T09:10:08;101477.00;;;29.37;26.33
53246;BME280;39569;51.090;-1.786;2023-04-07T09:12:35;101476.47;;;29.30;26.54
53246;BME280;39569;51.090;-1.786;2023-04-07T09:15:05;101473.69;;;29.45;24.77
53246;BME280;39569;51.090;-1.786;2023-04-07T09:17:32;101475.41;;;28.95;25.63
53246;BME280;39569;51.090;-1.786;2023-04-07T09:20:00;101481.75;;;29.06;27.21
53246;BME280;39569;51.090;-1.786;2023-04-07T09:22:34;101473.47;;;29.16;25.50
53246;BME280;39569;51.090;-1.786;2023-04-07T09:25:15;101482.69;;;30.14;25.33
53246;BME280;39569;51.090;-1.786;2023-04-07T09:27:56;101478.59;;;29.58;27.45
53246;BME280;39569;51.090;-1.786;2023-04-07T09:30:24;101476.88;;;29.67;25.88
53246;BME280;39569;51.090;-1.786;2023-04-07T09:32:51;101478.25;;;30.23;24.84
53246;BME280;39569;51.090;-1.786;2023-04-07T09:35:18;101479.81;;;29.22;24.91
53246;BME280;39569;51.090;-1.786;2023-04-07T09:38:00;101474.31;;;29.17;26.35
53246;BME280;39569;51.090;-1.786;2023-04-07T09:40:27;101479.28;;;28.84;26.10
53246;BME280;39569;51.090;-1.786;2023-04-07T09:42:54;101480.41;;;28.93;26.58
53246;BME280;39569;51.090;-1.786;2023-04-07T09:45:28;101477.66;;;28.68;25.19
53246;BME280;39569;51.090;-1.786;2023-04-07T09:47:56;101476.81;;;28.43;25.95
53246;BME280;39569;51.090;-1.786;2023-04-07T09:50:32;101472.09;;;29.08;27.79
53246;BME280;39569;51.090;-1.786;2023-04-07T09:53:00;101478.19;;;29.84;26.76
53246;BME280;39569;51.090;-1.786;2023-04-07T09:55:29;101469.56;;;29.37;26.18
53246;BME280;39569;51.090;-1.786;2023-04-07T09:57:56;101470.22;;;28.99;27.45
53246;BME280;39569;51.090;-1.786;2023-04-07T10:00:23;101470.75;;;29.85;25.70
53246;BME280;39569;51.090;-1.786;2023-04-07T10:02:52;101479.69;;;30.16;26.73
53246;BME280;39569;51.090;-1.786;2023-04-07T10:05:19;101463.31;;;29.17;27.31
53246;BME280;39569;51.090;-1.786;2023-04-07T10:07:47;101462.41;;;29.41;25.65
53246;BME280;39569;51.090;-1.786;2023-04-07T10:10:13;101467.16;;;29.89;27.94
53246;BME280;39569;51.090;-1.786;2023-04-07T10:12:41;101465.00;;;30.59;26.10
53246;BME280;39569;51.090;-1.786;2023-04-07T10:15:11;101460.53;;;31.49;26.18
53246;BME280;39569;51.090;-1.786;2023-04-07T10:17:41;101457.22;;;32.26;24.80
53246;BME280;39569;51.090;-1.786;2023-04-07T10:20:12;101458.47;;;31.78;23.45
53246;BME280;39569;51.090;-1.786;2023-04-07T10:22:41;101455.56;;;31.69;23.94
53246;BME280;39569;51.090;-1.786;2023-04-07T10:25:12;101457.78;;;31.49;25.68
53246;BME280;39569;51.090;-1.786;2023-04-07T10:27:43;101453.81;;;32.66;24.32
53246;BME280;39569;51.090;-1.786;2023-04-07T10:30:19;101447.59;;;32.42;21.89
53246;BME280;39569;51.090;-1.786;2023-04-07T10:32:46;101447.66;;;32.69;21.48
53246;BME280;39569;51.090;-1.786;2023-04-07T10:35:15;101443.47;;;32.72;21.05
53246;BME280;39569;51.090;-1.786;2023-04-07T10:38:10;101445.50;;;33.26;21.96
53246;BME280;39569;51.090;-1.786;2023-04-07T10:40:38;101441.09;;;32.15;21.62
53246;BME280;39569;51.090;-1.786;2023-04-07T10:43:06;101449.22;;;29.97;23.99
53246;BME280;39569;51.090;-1.786;2023-04-07T10:45:54;101440.63;;;32.45;24.42
53246;BME280;39569;51.090;-1.786;2023-04-07T10:48:26;101437.59;;;33.33;20.96
53246;BME280;39569;51.090;-1.786;2023-04-07T10:51:13;101437.28;;;35.08;20.97
53246;BME280;39569;51.090;-1.786;2023-04-07T10:57:10;101446.28;;;31.60;20.84
53246;BME280;39569;51.090;-1.786;2023-04-07T10:59:40;101451.25;;;24.46;30.33
53246;BME280;39569;51.090;-1.786;2023-04-07T11:02:31;101444.06;;;29.01;27.01
53246;BME280;39569;51.090;-1.786;2023-04-07T11:04:59;101448.59;;;31.72;24.55
53246;BME280;39569;51.090;-1.786;2023-04-07T11:07:45;101439.84;;;34.07;23.87
53246;BME280;39569;51.090;-1.786;2023-04-07T11:10:13;101434.81;;;35.45;18.66
53246;BME280;39569;51.090;-1.786;2023-04-07T11:12:41;101433.34;;;33.76;20.96
53246;BME280;39569;51.090;-1.786;2023-04-07T11:15:18;101445.16;;;29.79;23.52
53246;BME280;39569;51.090;-1.786;2023-04-07T11:17:46;101450.13;;;24.75;29.07
53246;BME280;39569;51.090;-1.786;2023-04-07T11:20:13;101446.81;;;28.16;25.84
53246;BME280;39569;51.090;-1.786;2023-04-07T11:22:39;101431.44;;;32.12;22.21
53246;BME280;39569;51.090;-1.786;2023-04-07T11:25:20;101436.44;;;34.10;20.75
53246;BME280;39569;51.090;-1.786;2023-04-07T11:27:52;101437.59;;;32.09;22.24
53246;BME280;39569;51.090;-1.786;2023-04-07T11:30:19;101439.66;;;33.90;21.53
53246;BME280;39569;51.090;-1.786;2023-04-07T11:32:50;101431.97;;;32.65;21.57
53246;BME280;39569;51.090;-1.786;2023-04-07T11:35:17;101432.44;;;34.60;21.45
53246;BME280;39569;51.090;-1.786;2023-04-07T11:37:43;101429.94;;;34.81;19.85
53246;BME280;39569;51.090;-1.786;2023-04-07T11:40:10;101436.34;;;34.37;19.68
53246;BME280;39569;51.090;-1.786;2023-04-07T11:42:42;101429.38;;;33.41;19.65
53246;BME280;39569;51.090;-1.786;2023-04-07T11:45:15;101425.38;;;35.72;18.29
53246;BME280;39569;51.090;-1.786;2023-04-07T11:47:43;101417.75;;;37.21;17.66
53246;BME280;39569;51.090;-1.786;2023-04-07T11:50:10;101426.59;;;35.32;16.73
53246;BME280;39569;51.090;-1.786;2023-04-07T11:52:41;101424.75;;;33.23;18.52
53246;BME280;39569;51.090;-1.786;2023-04-07T11:55:16;101415.28;;;37.28;17.35
53246;BME280;39569;51.090;-1.786;2023-04-07T11:57:44;101418.97;;;38.11;16.64
53246;BME280;39569;51.090;-1.786;2023-04-07T12:00:12;101412.03;;;39.31;15.89
53246;BME280;39569;51.090;-1.786;2023-04-07T12:02:40;101409.47;;;39.38;15.39
53246;BME280;39569;51.090;-1.786;2023-04-07T12:05:07;101411.88;;;39.88;15.51
53246;BME280;39569;51.090;-1.786;2023-04-07T12:07:35;101417.50;;;40.15;13.95
53246;BME280;39569;51.090;-1.786;2023-04-07T12:10:17;101420.28;;;39.03;13.93
53246;BME280;39569;51.090;-1.786;2023-04-07T12:12:46;101417.56;;;38.26;16.27
53246;BME280;39569;51.090;-1.786;2023-04-07T12:15:13;101407.34;;;38.30;14.78
53246;BME280;39569;51.090;-1.786;2023-04-07T12:17:43;101405.41;;;39.60;14.34
53246;BME280;39569;51.090;-1.786;2023-04-07T12:20:11;101411.34;;;39.58;13.27
53246;BME280;39569;51.090;-1.786;2023-04-07T12:22:37;101404.56;;;40.39;15.43
53246;BME280;39569;51.090;-1.786;2023-04-07T12:25:05;101406.59;;;41.16;13.12
53246;BME280;39569;51.090;-1.786;2023-04-07T12:27:32;101402.59;;;40.55;12.77
53246;BME280;39569;51.090;-1.786;2023-04-07T12:30:00;101415.22;;;40.76;12.53
53246;BME280;39569;51.090;-1.786;2023-04-07T12:32:27;101409.13;;;39.52;13.14
53246;BME280;39569;51.090;-1.786;2023-04-07T12:34:54;101405.16;;;39.04;13.88
53246;BME280;39569;51.090;-1.786;2023-04-07T12:37:21;101410.19;;;39.35;13.54
53246;BME280;39569;51.090;-1.786;2023-04-07T12:39:48;101410.16;;;38.42;13.78
53246;BME280;39569;51.090;-1.786;2023-04-07T12:42:14;101408.88;;;33.02;17.81
53246;BME280;39569;51.090;-1.786;2023-04-07T12:44:41;101412.56;;;34.01;17.87
53246;BME280;39569;51.090;-1.786;2023-04-07T12:47:09;101405.75;;;35.60;16.47
53246;BME280;39569;51.090;-1.786;2023-04-07T12:49:37;101407.97;;;37.94;14.12